createdAt,value
2018-11-22T00:03:00.000Z,98981
2018-11-22T00:08:00.000Z,98984
2018-11-22T00:13:00.000Z,98980
2018-11-22T00:18:00.000Z,98984
2018-11-22T00:23:00.000Z,98984
2018-11-22T00:28:00.000Z,98986
2018-11-22T00:33:00.000Z,98980
2018-11-22T00:38:00.000Z,98984
2018-11-22T00:43:00.000Z,98985
2018-11-22T00:48:00.000Z,98998
2018-11-22T00:53:00.000Z,99002
2018-11-22T00:58:00.000Z,98996
2018-11-22T01:03:00.000Z,98999
2018-11-22T01:08:00.000Z,99012
2018-11-22T01:13:00.000Z,99014
2018-11-22T01:18:00.000Z,99007
2018-11-22T01:23:00.000Z,99020
2018-11-22T01:28:00.000Z,99009
2018-11-22T01:33:00.000Z,98999
2018-11-22T01:38:00.000Z,99011
2018-11-22T01:43:00.000Z,99005
2018-11-22T01:48:00.000Z,99006
2018-11-22T01:53:00.000Z,99014
2018-11-22T01:58:00.000Z,99013
2018-11-22T02:03:00.000Z,99012
2018-11-22T02:08:00.000Z,99013
2018-11-22T02:13:00.000Z,99022
2018-11-22T02:18:00.000Z,99025
2018-11-22T02:23:00.000Z,99023
2018-11-22T02:28:00.000Z,99018
2018-11-22T02:33:00.000Z,99019
2018-11-22T02:38:00.000Z,99030
2018-11-22T02:43:00.000Z,99027
2018-11-22T02:48:00.000Z,99033
2018-11-22T02:54:00.000Z,99030
2018-11-22T02:59:00.000Z,99029
2018-11-22T03:04:00.000Z,99041
2018-11-22T03:09:00.000Z,99029
2018-11-22T03:14:00.000Z,99038
2018-11-22T03:19:00.000Z,99047
2018-11-22T03:24:00.000Z,99043
2018-11-22T03:29:00.000Z,99045
2018-11-22T03:34:00.000Z,99048
2018-11-22T03:39:00.000Z,99048
2018-11-22T03:44:00.000Z,99054
2018-11-22T03:49:00.000Z,99053
2018-11-22T03:54:00.000Z,99045
2018-11-22T03:59:00.000Z,99049
2018-11-22T04:04:00.000Z,99056
2018-11-22T04:09:00.000Z,99056
2018-11-22T04:14:00.000Z,99049
2018-11-22T04:19:00.000Z,99065
2018-11-22T04:24:00.000Z,99061
2018-11-22T04:29:00.000Z,99066
2018-11-22T04:34:00.000Z,99079
2018-11-22T04:39:00.000Z,99074
2018-11-22T04:44:00.000Z,99077
2018-11-22T04:49:00.000Z,99075
2018-11-22T04:54:00.000Z,99080
2018-11-22T04:59:00.000Z,99082
2018-11-22T05:04:00.000Z,99077
2018-11-22T05:09:00.000Z,99086
2018-11-22T05:14:00.000Z,99079
2018-11-22T05:19:00.000Z,99077
2018-11-22T05:24:00.000Z,99089
2018-11-22T05:29:00.000Z,99086
2018-11-22T05:34:00.000Z,99095
2018-11-22T05:39:00.000Z,99093
2018-11-22T05:44:00.000Z,99099
2018-11-22T05:49:00.000Z,99102
2018-11-22T05:54:00.000Z,99094
2018-11-22T05:59:00.000Z,99110
2018-11-22T06:04:00.000Z,99122
2018-11-22T06:09:00.000Z,99119
2018-11-22T06:14:00.000Z,99119
2018-11-22T06:19:00.000Z,99127
2018-11-22T06:24:00.000Z,99136
2018-11-22T06:29:00.000Z,99135
2018-11-22T06:34:00.000Z,99130
2018-11-22T06:39:00.000Z,99134
2018-11-22T06:44:00.000Z,99141
2018-11-22T06:49:00.000Z,99140
2018-11-22T06:54:00.000Z,99149
2018-11-22T06:59:00.000Z,99160
2018-11-22T07:04:00.000Z,99164
2018-11-22T07:09:00.000Z,99156
2018-11-22T07:14:00.000Z,99160
2018-11-22T07:19:00.000Z,99168
2018-11-22T07:24:00.000Z,99165
2018-11-22T07:29:00.000Z,99173
2018-11-22T07:34:00.000Z,99180
2018-11-22T07:39:00.000Z,99176
2018-11-22T07:44:00.000Z,99179
2018-11-22T07:49:00.000Z,99180
2018-11-22T07:54:00.000Z,99182
2018-11-22T07:59:00.000Z,99184
2018-11-22T08:04:00.000Z,99198
2018-11-22T08:09:00.000Z,99191
2018-11-22T08:14:00.000Z,99190
2018-11-22T08:19:00.000Z,99207
2018-11-22T08:24:00.000Z,99199
2018-11-22T08:29:00.000Z,99209
2018-11-22T08:34:00.000Z,99208
2018-11-22T08:39:00.000Z,99211
2018-11-22T08:44:00.000Z,99207
2018-11-22T08:49:00.000Z,99218
2018-11-22T08:55:00.000Z,99228
2018-11-22T09:00:00.000Z,99219
2018-11-22T09:05:00.000Z,99230
2018-11-22T09:10:00.000Z,99236
2018-11-22T09:15:00.000Z,99236
2018-11-22T09:20:00.000Z,99241
2018-11-22T09:25:00.000Z,99242
2018-11-22T09:30:00.000Z,99250
2018-11-22T09:35:00.000Z,99244
2018-11-22T09:40:00.000Z,99249
2018-11-22T09:45:00.000Z,99245
2018-11-22T09:50:00.000Z,99254
2018-11-22T09:55:00.000Z,99248
2018-11-22T10:00:00.000Z,99246
2018-11-22T10:05:00.000Z,99239
2018-11-22T10:10:00.000Z,99242
2018-11-22T10:15:00.000Z,99247
2018-11-22T10:20:00.000Z,99242
2018-11-22T10:25:00.000Z,99238
2018-11-22T10:30:00.000Z,99242
2018-11-22T10:35:00.000Z,99239
2018-11-22T10:40:00.000Z,99237
2018-11-22T10:45:00.000Z,99238
2018-11-22T10:50:00.000Z,99251
2018-11-22T10:55:00.000Z,99244
2018-11-22T11:00:00.000Z,99237
2018-11-22T11:05:00.000Z,99243
2018-11-22T11:10:00.000Z,99245
2018-11-22T11:15:00.000Z,99254
2018-11-22T11:20:00.000Z,99240
2018-11-22T11:25:00.000Z,99243
2018-11-22T11:30:00.000Z,99246
2018-11-22T11:35:00.000Z,99252
2018-11-22T11:40:00.000Z,99240
2018-11-22T11:45:00.000Z,99237
2018-11-22T11:50:00.000Z,99243
2018-11-22T11:55:00.000Z,99238
2018-11-22T12:00:00.000Z,99231
2018-11-22T12:05:00.000Z,99239
2018-11-22T12:10:00.000Z,99231
2018-11-22T12:15:00.000Z,99232
2018-11-22T12:20:00.000Z,99243
2018-11-22T12:25:00.000Z,99243
2018-11-22T12:30:00.000Z,99227
2018-11-22T12:35:00.000Z,99237
2018-11-22T12:40:00.000Z,99235
2018-11-22T12:45:00.000Z,99236
2018-11-22T12:50:00.000Z,99232
2018-11-22T12:55:00.000Z,99237
2018-11-22T13:00:00.000Z,99237
2018-11-22T13:05:00.000Z,99236
2018-11-22T13:10:00.000Z,99240
2018-11-22T13:15:00.000Z,99241
2018-11-22T13:20:00.000Z,99240
2018-11-22T13:25:00.000Z,99242
2018-11-22T13:30:00.000Z,99239
2018-11-22T13:35:00.000Z,99245
2018-11-22T13:40:00.000Z,99243
2018-11-22T13:45:00.000Z,99246
2018-11-22T13:50:00.000Z,99240
2018-11-22T13:55:00.000Z,99244
2018-11-22T14:00:00.000Z,99247
2018-11-22T14:05:00.000Z,99255
2018-11-22T14:10:00.000Z,99257
2018-11-22T14:15:00.000Z,99254
2018-11-22T14:20:00.000Z,99247
2018-11-22T14:26:00.000Z,99256
2018-11-22T14:31:00.000Z,99258
2018-11-22T14:36:00.000Z,99259
2018-11-22T14:41:00.000Z,99256
2018-11-22T14:46:00.000Z,99258
2018-11-22T14:51:00.000Z,99249
2018-11-22T14:56:00.000Z,99260
2018-11-22T15:01:00.000Z,99254
2018-11-22T15:06:00.000Z,99260
2018-11-22T15:11:00.000Z,99260
2018-11-22T15:16:00.000Z,99256
2018-11-22T15:21:00.000Z,99256
2018-11-22T15:26:00.000Z,99252
2018-11-22T15:31:00.000Z,99265
2018-11-22T15:36:00.000Z,99264
2018-11-22T15:41:00.000Z,99279
2018-11-22T15:46:00.000Z,99279
2018-11-22T15:51:00.000Z,99287
2018-11-22T15:56:00.000Z,99279
2018-11-22T16:01:00.000Z,99303
2018-11-22T16:06:00.000Z,99305
2018-11-22T16:11:00.000Z,99298
2018-11-22T16:16:00.000Z,99306
2018-11-22T16:21:00.000Z,99299
2018-11-22T16:26:00.000Z,99298
2018-11-22T16:31:00.000Z,99317
2018-11-22T16:36:00.000Z,99313
2018-11-22T16:41:00.000Z,99312
2018-11-22T16:46:00.000Z,99307
2018-11-22T16:51:00.000Z,99304
2018-11-22T16:56:00.000Z,99312
2018-11-22T17:01:00.000Z,99313
2018-11-22T17:06:00.000Z,99300
2018-11-22T17:11:00.000Z,99305
2018-11-22T17:16:00.000Z,99297
2018-11-22T17:21:00.000Z,99302
2018-11-22T17:26:00.000Z,99306
2018-11-22T17:31:00.000Z,99307
2018-11-22T17:36:00.000Z,99306
2018-11-22T17:41:00.000Z,99306
2018-11-22T17:46:00.000Z,99315
2018-11-22T17:51:00.000Z,99304
2018-11-22T17:56:00.000Z,99313
2018-11-22T18:01:00.000Z,99302
2018-11-22T18:06:00.000Z,99309
2018-11-22T18:11:00.000Z,99311
2018-11-22T18:16:00.000Z,99300
2018-11-22T18:21:00.000Z,99292
2018-11-22T18:26:00.000Z,99287
2018-11-22T18:31:00.000Z,99299
2018-11-22T18:36:00.000Z,99302
2018-11-22T18:41:00.000Z,99301
2018-11-22T18:46:00.000Z,99299
2018-11-22T18:51:00.000Z,99297
2018-11-22T18:56:00.000Z,99293
2018-11-22T19:01:00.000Z,99294
2018-11-22T19:06:00.000Z,99278
2018-11-22T19:11:00.000Z,99282
2018-11-22T19:16:00.000Z,99280
2018-11-22T19:21:00.000Z,99277
2018-11-22T19:26:00.000Z,99278
2018-11-22T19:31:00.000Z,99279
2018-11-22T19:36:00.000Z,99283
2018-11-22T19:41:00.000Z,99287
2018-11-22T19:46:00.000Z,99295
2018-11-22T19:52:00.000Z,99306
2018-11-22T19:57:00.000Z,99300
2018-11-22T20:02:00.000Z,99311
2018-11-22T20:07:00.000Z,99307
2018-11-22T20:12:00.000Z,99314
2018-11-22T20:17:00.000Z,99320
2018-11-22T20:22:00.000Z,99316
2018-11-22T20:27:00.000Z,99320
2018-11-22T20:32:00.000Z,99309
2018-11-22T20:37:00.000Z,99321
2018-11-22T20:42:00.000Z,99317
2018-11-22T20:47:00.000Z,99311
2018-11-22T20:52:00.000Z,99323
2018-11-22T20:57:00.000Z,99321
2018-11-22T21:02:00.000Z,99323
2018-11-22T21:07:00.000Z,99316
2018-11-22T21:12:00.000Z,99320
2018-11-22T21:17:00.000Z,99326
2018-11-22T21:22:00.000Z,99324
2018-11-22T21:27:00.000Z,99317
2018-11-22T21:32:00.000Z,99329
2018-11-22T21:37:00.000Z,99335
2018-11-22T21:42:00.000Z,99327
2018-11-22T21:47:00.000Z,99326
2018-11-22T21:52:00.000Z,99320
2018-11-22T21:57:00.000Z,99320
2018-11-22T22:02:00.000Z,99308
2018-11-22T22:07:00.000Z,99318
2018-11-22T22:12:00.000Z,99316
2018-11-22T22:17:00.000Z,99312
2018-11-22T22:22:00.000Z,99313
2018-11-22T22:27:00.000Z,99320
2018-11-22T22:32:00.000Z,99308
2018-11-22T22:37:00.000Z,99311
2018-11-22T22:42:00.000Z,99307
2018-11-22T22:47:00.000Z,99317
2018-11-22T22:52:00.000Z,99308
2018-11-22T22:57:00.000Z,99306
2018-11-22T23:02:00.000Z,99307
2018-11-22T23:07:00.000Z,99312
2018-11-22T23:12:00.000Z,99308
2018-11-22T23:17:00.000Z,99293
2018-11-22T23:22:00.000Z,99295
2018-11-22T23:27:00.000Z,99294
2018-11-22T23:32:00.000Z,99307
2018-11-22T23:37:00.000Z,99287
2018-11-22T23:42:00.000Z,99289
2018-11-22T23:47:00.000Z,99285
2018-11-22T23:52:00.000Z,99289
2018-11-22T23:57:00.000Z,99292
